Time;durP1;ratioP1;P1;durP2;ratioP2;P2;SDS_P1;SDS_P2;PMS_P1;PMS_P2;Temp;Humidity;BMP_temperature;BMP_pressure;BME280_temperature;BME280_humidity;BME280_pressure;Samples;Min_cycle;Max_cycle;Signal;HPM_P1;HPM_P2
2024/01/12 00:01:29;;;;;;;17.13;6.20;;;4.50;99.90;;;;;;5023661;28;20247;-42
2024/01/12 00:03:56;;;;;;;26.75;6.47;;;4.50;99.90;;;;;;5019071;28;20192;-42
2024/01/12 00:06:22;;;;;;;19.50;6.70;;;4.50;99.90;;;;;;5024362;28;20271;-47
2024/01/12 00:08:47;;;;;;;17.00;6.18;;;4.50;99.90;;;;;;5023675;28;20295;-43
2024/01/12 00:11:13;;;;;;;13.30;6.95;;;4.50;99.90;;;;;;5019260;28;20196;-51
2024/01/12 00:13:39;;;;;;;13.65;6.68;;;4.50;99.90;;;;;;5023656;28;20196;-48
2024/01/12 00:16:06;;;;;;;18.98;6.68;;;4.50;99.90;;;;;;5023148;28;20219;-38
2024/01/12 00:18:33;;;;;;;17.10;6.60;;;4.50;99.90;;;;;;5023626;28;20666;-49
2024/01/12 00:20:59;;;;;;;16.40;6.00;;;4.50;99.90;;;;;;5023623;28;20212;-43
2024/01/12 00:23:24;;;;;;;16.10;5.63;;;4.50;99.90;;;;;;5023675;28;20203;-44
2024/01/12 00:25:50;;;;;;;14.25;4.07;;;4.50;99.90;;;;;;5023171;28;20242;-46
2024/01/12 00:28:16;;;;;;;17.88;5.05;;;4.50;99.90;;;;;;5023082;28;20184;-45
2024/01/12 00:30:45;;;;;;;13.02;5.65;;;4.50;99.90;;;;;;5023874;28;20227;-42
2024/01/12 00:33:12;;;;;;;16.77;4.82;;;4.50;99.90;;;;;;5023235;28;20195;-46
2024/01/12 00:35:38;;;;;;;19.00;5.70;;;4.50;99.90;;;;;;5017782;28;20605;-44
2024/01/12 00:38:04;;;;;;;14.15;5.70;;;4.50;99.90;;;;;;5022821;28;20183;-44
2024/01/12 00:40:30;;;;;;;17.30;6.45;;;4.50;99.90;;;;;;5023062;28;20192;-49
2024/01/12 00:42:55;;;;;;;17.05;5.07;;;4.50;99.90;;;;;;5023255;28;20192;-38
2024/01/12 00:45:21;;;;;;;19.52;5.85;;;4.50;99.90;;;;;;5022874;28;20533;-48
2024/01/12 00:47:47;;;;;;;14.65;6.00;;;4.50;99.90;;;;;;5017221;28;20183;-45
2024/01/12 00:50:13;;;;;;;11.35;5.45;;;4.50;99.90;;;;;;5022533;28;20556;-42
2024/01/12 00:52:39;;;;;;;17.65;5.35;;;4.50;99.90;;;;;;5003576;28;20231;-43
2024/01/12 00:55:06;;;;;;;20.05;5.90;;;4.50;99.90;;;;;;5022812;28;20204;-45
2024/01/12 00:57:32;;;;;;;21.45;6.10;;;4.40;99.90;;;;;;5023044;28;20196;-46
2024/01/12 00:59:58;;;;;;;19.10;5.88;;;4.50;99.90;;;;;;5022939;28;20633;-42
2024/01/12 01:02:23;;;;;;;15.57;5.70;;;4.50;99.90;;;;;;5019604;28;20218;-48
2024/01/12 01:04:49;;;;;;;19.60;5.82;;;4.50;99.90;;;;;;5022746;28;20636;-46
2024/01/12 01:07:15;;;;;;;16.58;5.65;;;4.50;99.90;;;;;;5022373;28;20274;-46
2024/01/12 01:09:41;;;;;;;15.73;5.80;;;4.50;99.90;;;;;;5018552;28;20587;-47
2024/01/12 01:12:07;;;;;;;15.20;4.97;;;4.50;99.90;;;;;;5022650;28;20192;-49
2024/01/12 01:14:33;;;;;;;14.57;5.20;;;4.50;99.90;;;;;;5022872;28;20191;-45
2024/01/12 01:16:59;;;;;;;18.42;5.43;;;4.50;99.90;;;;;;5022461;28;21056;-44
2024/01/12 01:19:25;;;;;;;14.10;5.28;;;4.50;99.90;;;;;;5018114;28;20660;-44
2024/01/12 01:21:51;;;;;;;17.15;5.22;;;4.50;99.90;;;;;;5001278;28;20204;-42
2024/01/12 01:24:16;;;;;;;16.85;5.28;;;4.50;99.90;;;;;;5022694;28;20195;-46
2024/01/12 01:26:42;;;;;;;13.45;5.22;;;4.50;99.90;;;;;;5021911;28;20196;-46
2024/01/12 01:29:08;;;;;;;19.75;5.78;;;4.40;99.90;;;;;;5018681;28;20184;-46
2024/01/12 01:31:34;;;;;;;13.93;5.07;;;4.50;99.90;;;;;;5021828;28;20192;-46
2024/01/12 01:34:01;;;;;;;11.27;5.50;;;4.40;99.90;;;;;;5017269;28;20211;-45
2024/01/12 01:36:27;;;;;;;15.70;5.85;;;4.40;99.90;;;;;;5021609;28;20195;-48
2024/01/12 01:38:53;;;;;;;12.63;5.47;;;4.40;99.90;;;;;;5021739;28;20553;-45
2024/01/12 01:41:19;;;;;;;18.13;6.45;;;4.50;99.90;;;;;;5021646;28;20223;-56
2024/01/12 01:43:44;;;;;;;17.30;7.28;;;4.50;99.90;;;;;;5022241;28;20191;-46
2024/01/12 01:46:10;;;;;;;20.23;7.07;;;4.50;99.90;;;;;;5022127;28;20262;-46
2024/01/12 01:48:36;;;;;;;13.75;7.30;;;4.50;99.90;;;;;;5021642;28;20180;-47
2024/01/12 01:51:03;;;;;;;15.88;7.50;;;4.50;99.90;;;;;;5021626;28;20206;-45
2024/01/12 01:53:29;;;;;;;16.92;7.85;;;4.50;99.90;;;;;;5017467;28;20227;-50
2024/01/12 01:55:55;;;;;;;18.05;7.43;;;4.50;99.90;;;;;;5016128;28;20616;-48
2024/01/12 01:58:21;;;;;;;20.60;7.72;;;4.60;99.90;;;;;;5021444;28;20188;-44
2024/01/12 02:00:48;;;;;;;16.23;7.20;;;4.50;99.90;;;;;;5021538;28;20223;-43
2024/01/12 02:03:15;;;;;;;21.70;7.22;;;4.60;99.90;;;;;;5021018;28;20270;-39
2024/01/12 02:05:43;;;;;;;15.90;8.18;;;4.60;99.90;;;;;;5021716;28;20184;-45
2024/01/12 02:08:09;;;;;;;17.58;7.70;;;4.60;99.90;;;;;;5021362;28;20184;-47
2024/01/12 02:10:35;;;;;;;17.20;7.45;;;4.60;99.90;;;;;;5021716;28;20188;-42
2024/01/12 02:13:01;;;;;;;19.75;7.72;;;4.60;99.90;;;;;;5019196;28;20191;-42
2024/01/12 02:15:27;;;;;;;14.82;7.70;;;4.60;99.90;;;;;;5021418;28;20516;-43
2024/01/12 02:17:53;;;;;;;15.35;7.00;;;4.60;99.90;;;;;;5016861;28;20248;-44
2024/01/12 02:20:19;;;;;;;13.35;6.97;;;4.60;99.90;;;;;;5021104;28;20220;-41
2024/01/12 02:22:44;;;;;;;20.40;7.32;;;4.60;99.90;;;;;;5022124;28;20211;-46
2024/01/12 02:25:12;;;;;;;21.17;7.22;;;4.60;99.90;;;;;;5018109;28;20279;-47
2024/01/12 02:27:38;;;;;;;14.93;7.95;;;4.60;99.90;;;;;;5021142;28;20276;-51
2024/01/12 02:30:05;;;;;;;18.08;7.35;;;4.60;99.90;;;;;;5014915;28;20289;-45
2024/01/12 02:32:31;;;;;;;16.65;7.20;;;4.60;99.90;;;;;;5021451;28;20203;-47
2024/01/12 02:34:57;;;;;;;21.25;7.57;;;4.60;99.90;;;;;;5021568;28;20566;-46
2024/01/12 02:37:23;;;;;;;19.42;7.25;;;4.60;99.90;;;;;;5020520;28;20202;-45
2024/01/12 02:39:48;;;;;;;18.60;7.53;;;4.60;99.90;;;;;;5021231;28;20191;-45
2024/01/12 02:42:14;;;;;;;21.45;7.40;;;4.50;99.90;;;;;;5020874;28;20219;-42
2024/01/12 02:44:41;;;;;;;17.90;7.38;;;4.40;99.90;;;;;;5016472;28;20184;-44
2024/01/12 02:47:07;;;;;;;17.17;7.65;;;4.30;99.90;;;;;;5021040;28;20175;-51
2024/01/12 02:49:33;;;;;;;22.60;7.82;;;4.20;99.90;;;;;;5020850;28;20238;-40
2024/01/12 02:51:59;;;;;;;18.27;7.55;;;4.20;99.90;;;;;;5020931;28;20216;-41
2024/01/12 02:54:25;;;;;;;18.00;7.20;;;4.00;99.90;;;;;;5017656;28;20226;-50
2024/01/12 02:56:51;;;;;;;18.20;7.40;;;4.00;99.90;;;;;;5021107;28;20195;-45
2024/01/12 02:59:17;;;;;;;22.23;7.80;;;3.90;99.90;;;;;;5021435;28;20196;-42
2024/01/12 03:01:43;;;;;;;20.70;7.97;;;3.90;99.90;;;;;;5011796;28;20207;-47
2024/01/12 03:04:09;;;;;;;18.58;7.80;;;3.80;99.90;;;;;;5021079;28;20274;-46
2024/01/12 03:06:35;;;;;;;16.63;7.05;;;3.80;99.90;;;;;;5021098;28;20183;-49
2024/01/12 03:09:01;;;;;;;14.85;6.93;;;3.90;99.90;;;;;;5020188;28;20299;-48
2024/01/12 03:11:27;;;;;;;18.45;7.28;;;3.90;99.90;;;;;;5001739;28;20192;-47
2024/01/12 03:13:53;;;;;;;15.68;5.82;;;3.90;99.90;;;;;;5017410;28;20241;-43
2024/01/12 03:16:19;;;;;;;15.48;5.32;;;4.00;99.90;;;;;;5024590;28;20188;-42
2024/01/12 03:18:46;;;;;;;18.38;5.50;;;4.00;99.90;;;;;;5024452;28;20285;-43
2024/01/12 03:21:12;;;;;;;18.13;5.75;;;4.10;99.90;;;;;;5024656;28;20222;-42
2024/01/12 03:23:38;;;;;;;15.13;5.63;;;4.10;99.90;;;;;;5024348;28;20697;-45
2024/01/12 03:26:04;;;;;;;17.95;5.80;;;4.20;99.90;;;;;;5024454;28;20203;-46
2024/01/12 03:28:30;;;;;;;20.50;5.38;;;4.20;99.90;;;;;;5024760;28;20180;-51
2024/01/12 03:30:56;;;;;;;18.27;5.97;;;4.30;99.90;;;;;;5024424;28;20208;-44
2024/01/12 03:33:22;;;;;;;16.65;5.95;;;4.30;99.90;;;;;;5024883;28;20203;-42
2024/01/12 03:35:48;;;;;;;25.60;5.63;;;4.40;99.90;;;;;;5023987;28;20195;-43
2024/01/12 03:38:14;;;;;;;16.75;6.05;;;4.30;99.90;;;;;;5024299;28;20671;-43
2024/01/12 03:40:40;;;;;;;16.38;6.25;;;4.40;99.90;;;;;;5024473;28;20210;-42
2024/01/12 03:43:06;;;;;;;15.75;5.80;;;4.40;99.90;;;;;;5024015;28;20871;-45
2024/01/12 03:45:32;;;;;;;21.00;5.57;;;4.40;99.90;;;;;;5020233;28;20196;-43
2024/01/12 03:47:57;;;;;;;19.90;5.75;;;4.40;99.90;;;;;;5023809;28;20682;-42
2024/01/12 03:50:23;;;;;;;20.23;5.85;;;4.50;99.90;;;;;;5024254;28;20184;-46
2024/01/12 03:52:49;;;;;;;18.17;5.90;;;4.50;99.90;;;;;;5020415;28;20223;-49
2024/01/12 03:55:15;;;;;;;18.52;6.07;;;4.50;99.90;;;;;;5023647;28;20301;-44
2024/01/12 03:57:42;;;;;;;22.63;6.35;;;4.50;99.90;;;;;;5024277;28;20196;-48
2024/01/12 04:00:08;;;;;;;25.15;6.30;;;4.50;99.90;;;;;;5024114;28;20184;-50
2024/01/12 04:02:36;;;;;;;16.35;6.47;;;4.60;99.90;;;;;;5024090;28;20222;-45
2024/01/12 04:05:03;;;;;;;24.27;6.43;;;4.60;99.90;;;;;;5023527;28;20277;-40
2024/01/12 04:07:29;;;;;;;27.17;6.35;;;4.60;99.90;;;;;;5019885;28;20345;-46
2024/01/12 04:09:55;;;;;;;27.92;7.18;;;4.60;99.90;;;;;;5018656;28;20282;-48
2024/01/12 04:12:21;;;;;;;19.55;6.40;;;4.60;99.90;;;;;;5023151;28;20192;-49
2024/01/12 04:14:47;;;;;;;31.85;6.72;;;4.60;99.90;;;;;;5023860;28;20196;-43
2024/01/12 04:17:13;;;;;;;21.58;6.32;;;4.70;99.90;;;;;;5023665;28;20202;-48
2024/01/12 04:19:39;;;;;;;26.70;6.68;;;4.70;99.90;;;;;;5023850;28;20547;-41
2024/01/12 04:22:05;;;;;;;24.77;6.10;;;4.70;99.90;;;;;;5019610;28;20227;-43
2024/01/12 04:24:31;;;;;;;28.95;6.90;;;4.70;99.90;;;;;;5021894;28;20655;-43
2024/01/12 04:26:57;;;;;;;27.75;6.72;;;4.70;99.90;;;;;;5023675;28;20188;-42
2024/01/12 04:29:23;;;;;;;20.25;6.90;;;4.80;99.90;;;;;;5023370;28;20218;-50
2024/01/12 04:31:49;;;;;;;33.67;7.03;;;4.80;99.90;;;;;;5023469;28;20282;-42
2024/01/12 04:34:15;;;;;;;22.15;6.13;;;4.70;99.90;;;;;;5023422;28;20195;-52
2024/01/12 04:36:42;;;;;;;21.40;6.47;;;4.70;99.90;;;;;;5023150;28;20218;-46
2024/01/12 04:39:08;;;;;;;26.10;7.20;;;4.80;99.90;;;;;;5023358;28;20195;-45
2024/01/12 04:41:34;;;;;;;28.17;6.57;;;4.70;99.90;;;;;;5017769;28;20219;-52
2024/01/12 04:44:01;;;;;;;26.40;7.18;;;4.70;99.90;;;;;;5023257;28;20192;-42
2024/01/12 04:46:28;;;;;;;24.65;6.65;;;4.80;99.90;;;;;;4998708;28;20203;-44
2024/01/12 04:48:54;;;;;;;23.25;6.30;;;4.70;99.90;;;;;;5016679;28;20184;-45
2024/01/12 04:51:19;;;;;;;32.08;7.10;;;4.70;99.90;;;;;;5023128;28;20571;-47
2024/01/12 04:53:45;;;;;;;26.00;6.57;;;4.70;99.90;;;;;;5022509;28;20881;-47
2024/01/12 04:56:11;;;;;;;28.15;6.80;;;4.70;99.90;;;;;;5023002;28;20202;-47
2024/01/12 04:58:38;;;;;;;25.75;6.72;;;4.70;99.90;;;;;;5023087;28;20271;-46
2024/01/12 05:01:04;;;;;;;28.25;6.47;;;4.70;99.90;;;;;;5018563;28;20494;-49
2024/01/12 05:03:30;;;;;;;25.90;6.10;;;4.70;99.90;;;;;;5022748;28;20192;-45
2024/01/12 05:05:56;;;;;;;23.75;6.95;;;4.70;99.90;;;;;;5021213;28;20203;-45
2024/01/12 05:08:22;;;;;;;28.75;7.65;;;4.70;99.90;;;;;;5021959;28;20277;-52
2024/01/12 05:10:47;;;;;;;28.70;7.50;;;4.60;99.90;;;;;;5022491;28;20211;-45
2024/01/12 05:13:13;;;;;;;23.95;6.68;;;4.50;99.90;;;;;;5023034;28;20200;-47
2024/01/12 05:15:39;;;;;;;27.90;6.88;;;4.50;99.90;;;;;;4997540;28;20212;-45
2024/01/12 05:18:05;;;;;;;28.45;6.68;;;4.50;99.90;;;;;;5022587;28;20550;-48
2024/01/12 05:20:31;;;;;;;24.75;6.43;;;4.40;99.90;;;;;;5022585;28;20180;-52
2024/01/12 05:22:57;;;;;;;29.33;6.57;;;4.40;99.90;;;;;;5007312;28;20223;-40
2024/01/12 05:25:23;;;;;;;29.23;7.18;;;4.40;99.90;;;;;;5004986;28;20203;-41
2024/01/12 05:27:49;;;;;;;26.60;6.88;;;4.40;99.90;;;;;;5020857;28;20188;-45
2024/01/12 05:30:14;;;;;;;16.45;6.50;;;4.40;99.90;;;;;;4997365;28;20202;-51
2024/01/12 05:32:40;;;;;;;31.00;7.03;;;4.40;99.90;;;;;;5021688;28;20192;-44
2024/01/12 05:35:06;;;;;;;31.15;7.32;;;4.40;99.90;;;;;;5021031;28;20303;-46
2024/01/12 05:37:32;;;;;;;21.70;6.85;;;4.40;99.90;;;;;;5022295;28;20671;-44
2024/01/12 05:39:58;;;;;;;29.38;6.88;;;4.40;99.90;;;;;;5022306;28;20227;-50
2024/01/12 05:42:24;;;;;;;22.63;7.50;;;4.30;99.90;;;;;;5018020;28;20294;-45
2024/01/12 05:44:50;;;;;;;26.15;7.00;;;4.40;99.90;;;;;;5012418;28;20290;-49
2024/01/12 05:47:16;;;;;;;25.85;7.18;;;4.40;99.90;;;;;;5019155;28;20372;-43
2024/01/12 05:49:42;;;;;;;30.20;6.55;;;4.40;99.90;;;;;;5016010;28;20703;-49
2024/01/12 05:52:07;;;;;;;30.10;7.80;;;4.40;99.90;;;;;;5020889;28;20593;-47
2024/01/12 05:54:33;;;;;;;28.10;7.38;;;4.40;99.90;;;;;;5021507;28;20195;-47
2024/01/12 05:56:59;;;;;;;26.38;7.93;;;4.40;99.90;;;;;;5021114;28;20184;-43
2024/01/12 05:59:25;;;;;;;24.50;7.38;;;4.40;99.90;;;;;;5021648;28;20203;-47
2024/01/12 06:01:51;;;;;;;30.58;7.82;;;4.40;99.90;;;;;;5020809;28;20204;-42
2024/01/12 06:04:16;;;;;;;23.92;7.53;;;4.40;99.90;;;;;;5017298;28;20507;-45
2024/01/12 06:06:43;;;;;;;21.40;7.07;;;4.40;99.90;;;;;;5021818;28;20188;-41
2024/01/12 06:09:08;;;;;;;26.42;6.97;;;4.50;99.90;;;;;;5021740;28;20257;-45
2024/01/12 06:11:35;;;;;;;29.05;7.00;;;4.50;99.90;;;;;;5020050;28;20196;-48
2024/01/12 06:14:02;;;;;;;29.77;7.60;;;4.50;99.90;;;;;;5021498;28;20273;-45
2024/01/12 06:16:28;;;;;;;27.35;8.70;;;4.50;99.90;;;;;;5020008;28;20424;-49
2024/01/12 06:18:54;;;;;;;28.60;7.63;;;4.60;99.90;;;;;;5021478;28;20581;-41
2024/01/12 06:21:20;;;;;;;27.80;7.45;;;4.50;99.90;;;;;;5017632;28;20215;-44
2024/01/12 06:23:46;;;;;;;31.10;7.00;;;4.60;99.90;;;;;;5021472;28;20188;-46
2024/01/12 06:26:12;;;;;;;21.73;7.40;;;4.60;99.90;;;;;;5014135;28;20450;-46
2024/01/12 06:28:38;;;;;;;25.45;6.93;;;4.60;99.90;;;;;;5015421;28;20210;-54
2024/01/12 06:31:04;;;;;;;29.75;7.85;;;4.60;99.90;;;;;;5000064;28;20187;-44
2024/01/12 06:33:31;;;;;;;25.25;6.85;;;4.60;99.90;;;;;;4983586;28;20211;-45
2024/01/12 06:35:57;;;;;;;25.00;7.18;;;4.60;99.90;;;;;;5021223;28;20687;-47
2024/01/12 06:38:23;;;;;;;31.73;7.13;;;4.70;99.90;;;;;;5021013;28;20196;-43
2024/01/12 06:40:49;;;;;;;24.75;6.53;;;4.70;99.90;;;;;;5021196;28;20191;-44
2024/01/12 06:43:15;;;;;;;25.95;6.47;;;4.70;99.90;;;;;;5020772;28;20672;-46
2024/01/12 06:45:41;;;;;;;24.13;6.07;;;4.80;99.90;;;;;;5018254;28;20188;-42
2024/01/12 06:48:07;;;;;;;31.40;6.65;;;4.80;99.90;;;;;;5022820;28;20914;-42
2024/01/12 06:50:33;;;;;;;25.52;6.20;;;4.80;99.90;;;;;;5027515;28;20184;-46
2024/01/12 06:53:01;;;;;;;21.75;5.68;;;4.80;99.90;;;;;;5007222;28;20223;-44
2024/01/12 06:55:27;;;;;;;28.98;5.82;;;4.90;99.90;;;;;;5025738;28;20655;-46
2024/01/12 06:57:53;;;;;;;28.00;6.22;;;4.90;99.90;;;;;;5023604;28;20253;-42
2024/01/12 07:00:19;;;;;;;19.00;5.25;;;4.90;99.90;;;;;;5026379;28;20290;-52
2024/01/12 07:02:45;;;;;;;28.05;5.65;;;4.90;99.90;;;;;;5027291;28;20630;-47
2024/01/12 07:05:11;;;;;;;16.40;4.85;;;4.90;99.90;;;;;;5005108;28;20246;-42
2024/01/12 07:07:41;;;;;;;22.67;5.25;;;4.90;99.90;;;;;;5027672;28;20241;-48
2024/01/12 07:10:08;;;;;;;25.10;5.18;;;5.00;99.90;;;;;;5027356;28;20208;-49
2024/01/12 07:12:34;;;;;;;22.77;4.75;;;5.00;99.90;;;;;;4994919;28;20191;-45
2024/01/12 07:15:00;;;;;;;29.70;5.15;;;5.00;99.90;;;;;;5005435;28;20215;-44
2024/01/12 07:17:26;;;;;;;23.77;4.88;;;5.10;99.90;;;;;;4993854;28;20972;-46
2024/01/12 07:19:52;;;;;;;25.50;4.90;;;5.10;99.90;;;;;;4990543;28;20179;-44
2024/01/12 07:22:18;;;;;;;18.65;4.60;;;5.10;99.90;;;;;;5026570;28;20208;-46
2024/01/12 07:24:44;;;;;;;25.67;5.72;;;5.20;99.90;;;;;;5005346;28;20184;-47
2024/01/12 07:27:10;;;;;;;28.08;4.65;;;5.20;99.90;;;;;;5007084;28;20192;-47
2024/01/12 07:29:36;;;;;;;27.17;4.50;;;5.20;99.90;;;;;;5005828;28;20535;-50
2024/01/12 07:32:02;;;;;;;18.23;4.45;;;5.20;99.90;;;;;;5021719;28;20655;-40
2024/01/12 07:34:28;;;;;;;26.23;4.53;;;5.20;99.90;;;;;;5026810;28;20190;-48
2024/01/12 07:36:53;;;;;;;21.27;4.38;;;5.20;99.90;;;;;;5021921;28;20192;-45
2024/01/12 07:39:19;;;;;;;24.40;4.35;;;5.20;99.90;;;;;;5027177;28;20188;-45
2024/01/12 07:41:46;;;;;;;22.77;4.28;;;5.30;99.90;;;;;;5026856;28;20199;-47
2024/01/12 07:44:12;;;;;;;25.88;4.63;;;5.30;99.90;;;;;;5027339;28;20196;-42
2024/01/12 07:46:39;;;;;;;26.50;4.30;;;5.30;99.90;;;;;;5020983;28;20294;-51
2024/01/12 07:49:05;;;;;;;17.85;3.97;;;5.30;99.90;;;;;;5027038;28;20213;-42
2024/01/12 07:51:30;;;;;;;24.90;3.55;;;5.40;99.90;;;;;;5027038;28;20187;-42
2024/01/12 07:53:56;;;;;;;20.88;4.00;;;5.40;99.90;;;;;;5005220;28;20227;-45
2024/01/12 07:56:22;;;;;;;21.55;3.92;;;5.40;99.90;;;;;;5026693;28;20188;-44
2024/01/12 07:58:48;;;;;;;21.45;3.58;;;5.40;99.90;;;;;;5025920;28;20195;-45
2024/01/12 08:01:15;;;;;;;24.15;3.72;;;5.40;99.90;;;;;;5023748;28;20218;-43
2024/01/12 08:03:42;;;;;;;26.20;3.97;;;5.40;99.90;;;;;;5017919;28;20309;-48
2024/01/12 08:06:08;;;;;;;18.50;3.40;;;5.50;99.90;;;;;;5017786;28;20289;-43
2024/01/12 08:08:34;;;;;;;22.02;3.72;;;5.50;99.90;;;;;;4989007;28;20801;-47
2024/01/12 08:11:00;;;;;;;21.65;3.80;;;5.50;99.90;;;;;;5023649;28;20648;-44
2024/01/12 08:13:26;;;;;;;19.52;3.20;;;5.60;99.90;;;;;;5019780;28;20194;-43
2024/01/12 08:15:52;;;;;;;19.77;3.28;;;5.60;99.90;;;;;;4974719;28;20968;-46
2024/01/12 08:18:18;;;;;;;23.23;3.90;;;5.60;99.90;;;;;;4984922;28;20274;-48
2024/01/12 08:20:45;;;;;;;15.73;3.33;;;5.60;99.90;;;;;;5018967;28;20554;-42
2024/01/12 08:23:11;;;;;;;18.30;3.50;;;5.70;99.90;;;;;;5023619;28;20208;-41
2024/01/12 08:25:38;;;;;;;23.42;3.30;;;5.70;99.90;;;;;;5023781;28;20253;-50
2024/01/12 08:28:04;;;;;;;23.95;3.47;;;5.70;99.90;;;;;;5023156;28;20268;-45
2024/01/12 08:30:30;;;;;;;19.73;3.00;;;5.80;99.90;;;;;;5023232;28;20622;-46
2024/01/12 08:32:56;;;;;;;19.15;2.95;;;5.80;99.90;;;;;;5022901;28;20221;-42
2024/01/12 08:35:22;;;;;;;15.50;3.30;;;5.80;99.90;;;;;;5018564;28;20192;-48
2024/01/12 08:37:48;;;;;;;25.50;3.15;;;5.90;99.90;;;;;;5019262;28;20636;-43
2024/01/12 08:40:14;;;;;;;19.00;2.85;;;5.90;99.90;;;;;;4983880;28;20277;-51
2024/01/12 08:42:40;;;;;;;23.10;3.75;;;5.90;99.90;;;;;;4974940;28;20235;-48
2024/01/12 08:45:06;;;;;;;23.02;3.10;;;6.00;99.90;;;;;;5023185;28;20192;-45
2024/01/12 08:47:32;;;;;;;14.65;3.25;;;6.00;99.90;;;;;;5019095;28;20714;-47
2024/01/12 08:49:58;;;;;;;15.50;3.15;;;6.00;99.90;;;;;;5002044;28;20192;-43
2024/01/12 08:52:24;;;;;;;21.30;3.40;;;6.00;99.90;;;;;;5022177;28;20215;-44
2024/01/12 08:54:50;;;;;;;20.02;3.20;;;6.10;99.90;;;;;;4990263;28;20188;-45
2024/01/12 08:57:16;;;;;;;23.33;3.33;;;6.10;99.90;;;;;;5022724;28;20198;-43
2024/01/12 08:59:42;;;;;;;20.02;3.28;;;6.10;99.90;;;;;;4990389;28;20258;-49
2024/01/12 09:02:08;;;;;;;18.80;3.33;;;6.10;99.90;;;;;;4999424;28;20212;-50
2024/01/12 09:04:35;;;;;;;31.48;3.78;;;6.10;99.90;;;;;;4971778;28;20192;-45
2024/01/12 09:07:01;;;;;;;17.20;2.92;;;6.10;99.90;;;;;;5018353;28;20230;-48
2024/01/12 09:09:27;;;;;;;21.85;3.55;;;6.10;99.90;;;;;;5022153;28;20283;-43
2024/01/12 09:11:53;;;;;;;19.50;3.25;;;6.20;99.90;;;;;;5020506;28;20287;-45
2024/01/12 09:14:19;;;;;;;20.08;3.22;;;6.20;99.90;;;;;;5016056;28;20196;-40
2024/01/12 09:16:45;;;;;;;23.50;3.50;;;6.20;99.90;;;;;;5022567;28;20192;-46
2024/01/12 09:19:11;;;;;;;20.95;3.25;;;6.20;99.90;;;;;;5022423;28;20203;-54
2024/01/12 09:21:38;;;;;;;16.88;3.10;;;6.20;99.90;;;;;;5022260;28;20330;-47
2024/01/12 09:24:04;;;;;;;15.55;2.90;;;6.20;99.90;;;;;;5019110;28;20297;-41
2024/01/12 09:26:30;;;;;;;21.75;3.25;;;6.20;99.90;;;;;;4982586;28;20676;-44
2024/01/12 09:28:57;;;;;;;21.08;3.55;;;6.20;99.90;;;;;;4998562;28;20262;-45
2024/01/12 09:31:23;;;;;;;18.23;3.42;;;6.20;99.90;;;;;;5002081;28;20223;-47
2024/01/12 09:33:51;;;;;;;14.02;3.33;;;6.30;99.90;;;;;;5014854;28;20291;-46
2024/01/12 09:36:17;;;;;;;17.02;3.80;;;6.30;99.90;;;;;;5021629;28;20199;-44
2024/01/12 09:38:43;;;;;;;25.50;3.53;;;6.30;99.90;;;;;;5021993;28;20199;-49
2024/01/12 09:41:12;;;;;;;26.25;3.47;;;6.30;99.90;;;;;;5021694;28;21031;-41
2024/01/12 09:43:40;;;;;;;13.13;2.60;;;6.30;99.90;;;;;;4985549;28;20199;-40
2024/01/12 09:46:08;;;;;;;20.60;3.38;;;6.30;99.90;;;;;;5015613;28;20188;-45
2024/01/12 09:48:34;;;;;;;18.73;3.08;;;6.30;99.90;;;;;;5021652;28;20192;-46
2024/01/12 09:51:03;;;;;;;21.85;3.58;;;6.30;99.90;;;;;;5018438;28;20194;-46
2024/01/12 09:53:29;;;;;;;17.35;3.35;;;6.30;99.90;;;;;;5021544;28;20227;-47
2024/01/12 09:55:55;;;;;;;15.35;2.78;;;6.40;99.90;;;;;;5021228;28;20202;-43
2024/01/12 09:58:21;;;;;;;15.93;3.20;;;6.30;99.90;;;;;;5021522;28;20604;-43
2024/01/12 10:00:50;;;;;;;17.08;2.92;;;6.40;99.90;;;;;;5021619;28;20199;-45
2024/01/12 10:03:17;;;;;;;23.20;2.80;;;6.30;99.90;;;;;;4984420;28;22321;-46
2024/01/12 10:05:44;;;;;;;18.45;2.92;;;6.30;99.90;;;;;;5021394;28;20184;-44
2024/01/12 10:08:10;;;;;;;16.42;2.67;;;6.30;99.90;;;;;;5014623;28;21236;-48
2024/01/12 10:10:38;;;;;;;23.60;3.20;;;6.30;99.90;;;;;;4983319;28;20703;-45
2024/01/12 10:13:04;;;;;;;18.95;2.95;;;6.30;99.90;;;;;;5020692;28;20206;-42
2024/01/12 10:15:32;;;;;;;18.05;2.78;;;6.40;99.90;;;;;;5014424;28;20199;-44
2024/01/12 10:17:58;;;;;;;20.15;2.92;;;6.40;99.90;;;;;;5018652;28;20207;-51
2024/01/12 10:20:24;;;;;;;18.02;3.03;;;6.40;99.90;;;;;;5020861;28;20230;-45
2024/01/12 10:22:57;;;;;;;19.73;2.92;;;6.50;99.90;;;;;;5020450;28;20262;-48
2024/01/12 10:25:23;;;;;;;16.10;3.20;;;6.40;99.90;;;;;;5020354;28;20191;-47
2024/01/12 10:27:55;;;;;;;19.23;4.53;;;6.50;99.90;;;;;;5020892;28;20191;-39
2024/01/12 10:30:21;;;;;;;15.50;3.22;;;6.50;99.90;;;;;;5020804;28;20191;-45
2024/01/12 10:32:52;;;;;;;17.63;3.28;;;6.50;99.90;;;;;;5004067;28;20206;-42
2024/01/12 10:35:21;;;;;;;27.05;3.65;;;6.50;99.90;;;;;;5020859;28;20191;-45
2024/01/12 10:37:48;;;;;;;26.25;3.63;;;6.50;99.90;;;;;;5021238;28;20555;-45
2024/01/12 10:40:16;;;;;;;18.00;3.35;;;6.50;99.90;;;;;;5021327;28;20301;-52
2024/01/12 10:42:47;;;;;;;24.10;4.15;;;6.50;99.90;;;;;;5020909;28;20300;-43
2024/01/12 10:45:19;;;;;;;18.75;3.78;;;6.50;99.90;;;;;;5015228;28;20191;-43
2024/01/12 10:47:55;;;;;;;16.40;2.83;;;6.50;99.90;;;;;;5020764;28;20267;-42
2024/01/12 10:50:23;;;;;;;21.38;3.17;;;6.50;99.90;;;;;;5020835;28;20195;-47
2024/01/12 10:53:13;;;;;;;17.90;3.05;;;6.50;99.90;;;;;;4987914;28;20243;-40
2024/01/12 10:55:48;;;;;;;21.23;3.40;;;6.50;99.90;;;;;;5020591;28;20234;-49
2024/01/12 10:58:16;;;;;;;18.50;3.55;;;6.50;99.90;;;;;;5020630;28;20701;-44
2024/01/12 11:00:43;;;;;;;24.83;3.72;;;6.40;99.90;;;;;;5020200;28;20216;-41
2024/01/12 11:03:10;;;;;;;16.98;3.28;;;6.40;99.90;;;;;;5020539;28;20227;-43
2024/01/12 11:05:37;;;;;;;18.52;2.97;;;6.40;99.90;;;;;;5015974;28;20191;-41
2024/01/12 11:08:09;;;;;;;21.02;3.65;;;6.50;99.90;;;;;;5017566;28;20195;-43
2024/01/12 11:10:38;;;;;;;20.10;3.65;;;6.50;99.90;;;;;;5020564;28;20196;-47
2024/01/12 11:13:04;;;;;;;25.38;3.80;;;6.60;99.90;;;;;;5020245;28;20191;-50
2024/01/12 11:15:30;;;;;;;17.60;3.63;;;6.60;99.90;;;;;;5020158;28;20551;-42
2024/01/12 11:17:56;;;;;;;21.92;4.22;;;6.60;99.90;;;;;;5019854;28;20195;-45
2024/01/12 11:20:22;;;;;;;19.52;3.65;;;6.60;99.90;;;;;;5019964;28;20200;-42
2024/01/12 11:22:49;;;;;;;20.50;3.75;;;6.60;99.90;;;;;;5019645;28;20219;-43
2024/01/12 11:25:18;;;;;;;20.15;3.00;;;6.60;99.90;;;;;;5020106;28;20278;-44
2024/01/12 11:27:50;;;;;;;24.52;3.88;;;6.60;99.90;;;;;;5016542;28;20361;-54
2024/01/12 11:30:20;;;;;;;13.98;3.10;;;6.60;99.90;;;;;;5020538;28;20199;-46
2024/01/12 11:32:46;;;;;;;16.60;3.88;;;6.60;99.90;;;;;;5019826;28;20204;-46
2024/01/12 11:35:14;;;;;;;24.33;3.75;;;6.60;99.90;;;;;;5022959;28;20274;-48
2024/01/12 11:38:00;;;;;;;23.33;3.78;;;6.60;99.90;;;;;;5016119;28;20188;-45
2024/01/12 11:40:27;;;;;;;21.58;3.42;;;6.60;99.90;;;;;;5024344;28;20184;-48
2024/01/12 11:42:53;;;;;;;21.05;3.55;;;6.60;99.90;;;;;;5023452;28;20224;-44
2024/01/12 11:45:20;;;;;;;25.60;3.90;;;6.70;99.90;;;;;;5023765;28;20264;-47
2024/01/12 11:47:46;;;;;;;22.20;3.55;;;6.70;99.90;;;;;;5023406;28;20195;-44
2024/01/12 11:50:14;;;;;;;20.17;3.13;;;6.80;99.90;;;;;;5023557;28;20290;-42
2024/01/12 11:52:40;;;;;;;27.58;3.42;;;6.80;99.90;;;;;;5006466;28;20228;-44
2024/01/12 11:55:07;;;;;;;24.15;4.10;;;6.80;99.90;;;;;;5022936;28;20623;-48
2024/01/12 11:57:37;;;;;;;21.25;3.70;;;6.80;99.90;;;;;;5022930;28;20200;-45
2024/01/12 12:00:04;;;;;;;21.50;3.72;;;6.80;99.90;;;;;;5023174;28;20253;-41
2024/01/12 12:02:35;;;;;;;21.40;3.60;;;6.80;99.90;;;;;;5023308;28;20243;-41
2024/01/12 12:05:14;;;;;;;28.15;4.38;;;6.90;99.90;;;;;;5023130;28;20270;-49
2024/01/12 12:07:40;;;;;;;22.30;3.70;;;6.90;99.90;;;;;;5023378;28;20191;-47
2024/01/12 12:10:07;;;;;;;21.63;3.72;;;6.80;99.90;;;;;;5023147;28;20187;-47
2024/01/12 12:12:34;;;;;;;25.65;3.80;;;6.80;99.90;;;;;;5023471;28;20192;-43
2024/01/12 12:15:12;;;;;;;21.02;3.45;;;6.80;99.90;;;;;;5023001;28;20192;-51
2024/01/12 12:17:43;;;;;;;16.45;3.15;;;6.80;99.90;;;;;;5022902;28;20196;-49
2024/01/12 12:20:12;;;;;;;23.83;3.95;;;6.90;99.90;;;;;;5022668;28;20260;-52
2024/01/12 12:22:45;;;;;;;26.15;3.63;;;6.90;99.90;;;;;;5022416;28;20546;-46
2024/01/12 12:25:15;;;;;;;22.10;3.33;;;6.90;99.90;;;;;;5022964;28;20214;-47
2024/01/12 12:27:46;;;;;;;18.40;3.80;;;7.00;99.90;;;;;;5023245;28;20184;-47
2024/01/12 12:30:14;;;;;;;24.50;3.47;;;7.00;99.90;;;;;;5022941;28;20187;-47
2024/01/12 12:32:41;;;;;;;30.00;3.95;;;7.00;99.90;;;;;;5017948;28;20188;-52
2024/01/12 12:35:17;;;;;;;22.58;3.67;;;7.00;99.90;;;;;;5022720;28;20192;-48
2024/01/12 12:37:47;;;;;;;26.75;3.03;;;7.00;99.90;;;;;;5022981;28;20242;-42
2024/01/12 12:40:14;;;;;;;24.60;3.15;;;7.00;99.90;;;;;;5018195;28;20191;-45
2024/01/12 12:42:45;;;;;;;20.70;3.42;;;7.00;99.90;;;;;;5022147;28;20357;-51
2024/01/12 12:45:12;;;;;;;31.27;3.13;;;6.90;99.90;;;;;;5006198;28;20338;-42